Time;durP1;ratioP1;P1;durP2;ratioP2;P2;SDS_P1;SDS_P2;PMS_P1;PMS_P2;Temp;Humidity;BMP_temperature;BMP_pressure;BME280_temperature;BME280_humidity;BME280_pressure;Samples;Min_cycle;Max_cycle;Signal;HPM_P1;HPM_P2
2023/09/02 00:00:30;;;;;;;0.88;0.40;;;14.00;99.90;;;;;;5093131;28;20172;-70
2023/09/02 00:02:56;;;;;;;2.15;0.80;;;14.00;99.90;;;;;;5093550;28;20036;-70
2023/09/02 00:05:22;;;;;;;0.98;0.30;;;14.00;99.90;;;;;;5087714;28;20055;-70
2023/09/02 00:07:47;;;;;;;1.27;0.73;;;14.00;99.90;;;;;;5092723;28;20032;-70
2023/09/02 00:10:13;;;;;;;0.50;0.30;;;14.00;99.90;;;;;;5092573;28;20144;-70
2023/09/02 00:12:39;;;;;;;0.55;0.25;;;14.00;99.90;;;;;;5073984;28;20051;-70
2023/09/02 00:15:05;;;;;;;0.98;0.50;;;14.00;99.90;;;;;;5086020;28;20428;-70
2023/09/02 00:17:37;;;;;;;1.05;0.65;;;14.00;99.90;;;;;;5093029;28;20035;-69
2023/09/02 00:20:05;;;;;;;0.90;0.30;;;14.00;99.90;;;;;;5072688;28;20566;-69
2023/09/02 00:22:32;;;;;;;1.95;0.63;;;14.00;99.90;;;;;;5090860;28;20350;-69
2023/09/02 00:24:58;;;;;;;1.05;0.50;;;14.00;99.90;;;;;;5092479;28;20027;-69
2023/09/02 00:27:24;;;;;;;0.45;0.28;;;14.00;99.90;;;;;;5093817;28;20510;-69
2023/09/02 00:29:50;;;;;;;0.40;0.20;;;14.00;99.90;;;;;;5092560;28;20070;-70
2023/09/02 00:32:16;;;;;;;0.45;0.30;;;14.10;99.90;;;;;;5092688;28;20051;-69
2023/09/02 00:34:41;;;;;;;0.40;0.22;;;14.10;99.90;;;;;;5088668;28;20418;-69
2023/09/02 00:37:07;;;;;;;1.23;0.40;;;14.10;99.90;;;;;;5092432;28;20096;-70
2023/09/02 00:39:33;;;;;;;0.95;0.60;;;14.10;99.90;;;;;;5089831;28;20043;-69
2023/09/02 00:42:01;;;;;;;1.35;0.40;;;14.10;99.90;;;;;;5090963;28;20449;-69
2023/09/02 00:44:26;;;;;;;1.95;0.40;;;14.10;99.90;;;;;;5092492;28;20048;-69
2023/09/02 00:46:53;;;;;;;1.77;0.70;;;14.10;99.90;;;;;;5092781;28;20403;-69
2023/09/02 00:49:19;;;;;;;0.80;0.50;;;14.10;99.90;;;;;;5092455;28;20108;-70
2023/09/02 00:51:45;;;;;;;1.13;0.45;;;14.20;99.90;;;;;;5088263;28;20027;-69
2023/09/02 00:54:10;;;;;;;1.13;0.45;;;14.10;99.90;;;;;;5090240;28;20050;-70
2023/09/02 00:56:39;;;;;;;1.75;0.70;;;14.20;99.90;;;;;;5109354;28;20032;-70
2023/09/02 00:59:06;;;;;;;1.17;0.47;;;14.10;99.90;;;;;;5092595;28;20044;-69
2023/09/02 01:01:33;;;;;;;1.08;0.30;;;14.20;99.90;;;;;;5110185;28;20024;-70
2023/09/02 01:04:01;;;;;;;1.42;0.30;;;14.10;99.90;;;;;;5092489;28;20047;-70
2023/09/02 01:06:27;;;;;;;0.63;0.28;;;14.10;99.90;;;;;;5090162;28;20478;-69
2023/09/02 01:08:54;;;;;;;1.13;0.50;;;14.20;99.90;;;;;;5091256;28;20058;-69
2023/09/02 01:11:19;;;;;;;1.92;1.50;;;14.10;99.90;;;;;;5091206;28;20048;-69
2023/09/02 01:13:45;;;;;;;1.75;0.80;;;14.10;99.90;;;;;;5091845;28;20043;-69
2023/09/02 01:16:11;;;;;;;0.77;0.60;;;14.10;99.90;;;;;;5074210;28;20043;-69
2023/09/02 01:18:37;;;;;;;0.60;0.30;;;14.10;99.90;;;;;;5091118;28;20159;-69
2023/09/02 01:21:19;;;;;;;0.88;0.45;;;14.10;99.90;;;;;;5089768;28;20046;-69
2023/09/02 01:24:03;;;;;;;2.60;0.82;;;14.10;99.90;;;;;;5091830;28;20088;-69
2023/09/02 01:27:06;;;;;;;1.33;0.77;;;14.10;99.90;;;;;;5089779;28;20047;-70
2023/09/02 01:29:36;;;;;;;2.08;0.75;;;14.10;99.90;;;;;;5089859;28;20079;-71
2023/09/02 01:32:06;;;;;;;1.63;0.60;;;14.10;99.90;;;;;;5090087;28;20039;-71
2023/09/02 01:34:34;;;;;;;1.23;0.60;;;14.10;99.90;;;;;;5089372;28;20116;-71
2023/09/02 01:37:02;;;;;;;0.73;0.47;;;14.10;99.90;;;;;;5089894;28;20058;-71
2023/09/02 01:39:30;;;;;;;1.33;0.70;;;14.10;99.90;;;;;;5091086;28;20043;-71
2023/09/02 01:41:57;;;;;;;0.85;0.47;;;14.10;99.90;;;;;;5091681;28;20031;-71
2023/09/02 01:44:25;;;;;;;1.67;0.60;;;14.10;99.90;;;;;;5089005;28;20390;-71
2023/09/02 01:46:51;;;;;;;0.73;0.30;;;14.10;99.90;;;;;;5090384;28;20093;-71
2023/09/02 01:49:17;;;;;;;1.17;0.75;;;14.10;99.90;;;;;;5072543;28;20040;-71
2023/09/02 01:51:44;;;;;;;0.85;0.55;;;14.10;99.90;;;;;;5091248;28;20106;-70
2023/09/02 01:54:10;;;;;;;1.73;0.50;;;14.00;99.90;;;;;;5091267;28;20126;-70
2023/09/02 01:56:37;;;;;;;0.68;0.47;;;14.00;99.90;;;;;;5068915;28;20134;-71
2023/09/02 01:59:02;;;;;;;1.17;0.57;;;14.00;99.90;;;;;;5090450;28;20040;-71
2023/09/02 02:01:28;;;;;;;2.00;0.60;;;14.00;99.90;;;;;;5089870;28;20067;-71
2023/09/02 02:04:14;;;;;;;2.08;0.60;;;14.00;99.90;;;;;;5088476;28;20035;-70
2023/09/02 02:06:41;;;;;;;1.58;0.52;;;14.00;99.90;;;;;;5088726;28;20165;-70
2023/09/02 02:09:13;;;;;;;1.20;0.50;;;14.00;99.90;;;;;;5089739;28;20494;-70
2023/09/02 02:11:39;;;;;;;0.65;0.38;;;14.00;99.90;;;;;;5090849;28;20042;-70
2023/09/02 02:14:06;;;;;;;1.02;0.57;;;14.00;99.90;;;;;;5091174;28;20050;-70
2023/09/02 02:16:32;;;;;;;1.95;0.88;;;14.00;99.90;;;;;;5089525;28;20051;-71
2023/09/02 02:18:59;;;;;;;1.13;0.70;;;14.00;99.90;;;;;;5090536;28;20046;-70
2023/09/02 02:21:25;;;;;;;0.93;0.50;;;14.00;99.90;;;;;;5087781;28;20084;-71
2023/09/02 02:23:51;;;;;;;0.30;0.25;;;14.00;99.90;;;;;;5089680;28;20032;-71
2023/09/02 02:26:17;;;;;;;0.82;0.55;;;14.00;99.90;;;;;;5088534;28;20046;-71
2023/09/02 02:28:43;;;;;;;1.45;0.73;;;14.00;99.90;;;;;;5091760;28;20063;-71
2023/09/02 02:31:09;;;;;;;2.35;0.50;;;14.00;99.90;;;;;;5088615;28;20102;-70
2023/09/02 02:33:38;;;;;;;1.23;0.55;;;14.00;99.90;;;;;;5089377;28;20035;-70
2023/09/02 02:36:05;;;;;;;0.90;0.40;;;14.00;99.90;;;;;;5089794;28;20040;-70
2023/09/02 02:38:30;;;;;;;1.73;0.50;;;14.00;99.90;;;;;;5088552;28;20051;-70
2023/09/02 02:40:56;;;;;;;0.68;0.38;;;14.00;99.90;;;;;;5090102;28;20440;-70
2023/09/02 02:43:26;;;;;;;0.70;0.50;;;14.00;99.90;;;;;;5090155;28;20067;-70
2023/09/02 02:45:55;;;;;;;0.98;0.60;;;14.00;99.90;;;;;;5091147;28;20047;-71
2023/09/02 02:48:32;;;;;;;1.33;0.80;;;14.00;99.90;;;;;;5088134;28;20670;-70
2023/09/02 02:50:58;;;;;;;1.35;0.63;;;14.00;99.90;;;;;;5088685;28;20484;-70
2023/09/02 02:53:24;;;;;;;1.85;0.73;;;14.00;99.90;;;;;;5088108;28;20054;-70
2023/09/02 02:55:50;;;;;;;2.08;0.88;;;13.90;99.90;;;;;;5089736;28;20040;-69
2023/09/02 02:58:16;;;;;;;0.65;0.40;;;13.90;99.90;;;;;;5090431;28;20065;-70
2023/09/02 03:00:46;;;;;;;1.30;0.80;;;13.90;99.90;;;;;;5090936;28;20047;-69
2023/09/02 03:03:12;;;;;;;1.60;0.85;;;13.90;99.90;;;;;;5107770;28;20036;-69
2023/09/02 03:05:39;;;;;;;1.05;0.73;;;13.90;99.90;;;;;;5070595;28;20521;-70
2023/09/02 03:08:05;;;;;;;1.00;0.60;;;13.90;99.90;;;;;;5087694;28;20080;-70
2023/09/02 03:10:35;;;;;;;1.52;0.75;;;13.90;99.90;;;;;;5109279;28;20112;-69
2023/09/02 03:13:04;;;;;;;1.10;0.40;;;13.90;99.90;;;;;;5112334;28;20124;-70
2023/09/02 03:15:29;;;;;;;0.88;0.55;;;13.80;99.90;;;;;;5089704;28;20080;-70
2023/09/02 03:17:55;;;;;;;1.13;0.57;;;13.80;99.90;;;;;;5091149;28;20040;-70
2023/09/02 03:20:21;;;;;;;1.23;0.70;;;13.80;99.90;;;;;;5088144;28;20517;-70
2023/09/02 03:22:47;;;;;;;2.33;0.93;;;13.80;99.90;;;;;;5094732;28;20027;-70
2023/09/02 03:25:12;;;;;;;1.90;0.80;;;13.80;99.90;;;;;;5111913;28;20050;-70
2023/09/02 03:27:41;;;;;;;0.50;0.50;;;13.80;99.90;;;;;;5094249;28;20443;-70
2023/09/02 03:30:08;;;;;;;0.95;0.63;;;13.80;99.90;;;;;;5092947;28;20055;-70
2023/09/02 03:32:34;;;;;;;1.45;0.80;;;13.80;99.90;;;;;;5093057;28;20488;-69
2023/09/02 03:35:01;;;;;;;2.80;0.70;;;13.80;99.90;;;;;;5092838;28;20096;-69
2023/09/02 03:37:27;;;;;;;1.33;0.82;;;13.80;99.90;;;;;;5093788;28;20519;-69
2023/09/02 03:39:57;;;;;;;1.15;0.40;;;13.80;99.90;;;;;;5086377;28;20139;-69
2023/09/02 03:42:23;;;;;;;2.35;1.13;;;13.80;99.90;;;;;;5091354;28;20042;-69
2023/09/02 03:44:48;;;;;;;1.63;0.73;;;13.80;99.90;;;;;;5092571;28;20462;-69
2023/09/02 03:47:14;;;;;;;2.75;0.93;;;13.80;99.90;;;;;;5093724;28;20028;-69
2023/09/02 03:49:40;;;;;;;1.42;0.80;;;13.80;99.90;;;;;;5093764;28;20035;-69
2023/09/02 03:52:06;;;;;;;3.80;1.05;;;13.80;99.90;;;;;;5092133;28;20126;-69
2023/09/02 03:54:31;;;;;;;1.48;0.88;;;13.80;99.90;;;;;;5094142;28;20624;-69
2023/09/02 03:56:57;;;;;;;1.23;0.85;;;13.80;99.90;;;;;;5094637;28;20031;-69
2023/09/02 03:59:23;;;;;;;1.38;0.80;;;13.80;99.90;;;;;;5093181;28;20075;-69
2023/09/02 04:01:49;;;;;;;1.02;0.60;;;13.80;99.90;;;;;;5073381;28;20115;-70
2023/09/02 04:04:15;;;;;;;1.83;0.55;;;13.90;99.90;;;;;;5090762;28;20555;-70
2023/09/02 04:06:40;;;;;;;1.50;0.70;;;13.90;99.90;;;;;;5093708;28;20035;-70
2023/09/02 04:09:09;;;;;;;4.03;0.80;;;13.90;99.90;;;;;;5093747;28;20302;-70
2023/09/02 04:11:35;;;;;;;0.75;0.40;;;13.90;99.90;;;;;;5091580;28;20034;-69
2023/09/02 04:14:02;;;;;;;1.60;1.02;;;13.90;99.90;;;;;;5090234;28;20118;-69
2023/09/02 04:16:27;;;;;;;1.35;0.93;;;13.90;99.90;;;;;;5093688;28;20116;-69
2023/09/02 04:18:53;;;;;;;1.13;0.60;;;13.90;99.90;;;;;;5088703;28;20130;-70
2023/09/02 04:21:19;;;;;;;3.22;0.70;;;13.80;99.90;;;;;;5074334;28;20447;-69
2023/09/02 04:23:46;;;;;;;1.98;1.10;;;13.90;99.90;;;;;;5092502;28;20036;-70
2023/09/02 04:26:12;;;;;;;1.45;0.80;;;13.90;99.90;;;;;;5092915;28;20040;-70
2023/09/02 04:28:38;;;;;;;1.27;0.70;;;13.90;99.90;;;;;;5093841;28;20035;-70
2023/09/02 04:31:04;;;;;;;1.85;0.77;;;13.90;99.90;;;;;;5091842;28;20188;-70
2023/09/02 04:33:30;;;;;;;1.98;1.52;;;13.90;99.90;;;;;;5090658;28;20089;-69
2023/09/02 04:35:56;;;;;;;1.48;0.85;;;13.90;99.90;;;;;;5110554;28;20040;-69
2023/09/02 04:38:21;;;;;;;0.60;0.45;;;13.90;99.90;;;;;;5091018;28;20051;-70
2023/09/02 04:40:47;;;;;;;1.38;0.77;;;13.90;99.90;;;;;;5092567;28;20096;-69
2023/09/02 04:43:14;;;;;;;0.95;0.82;;;13.90;99.90;;;;;;5093154;28;20039;-70
2023/09/02 04:45:41;;;;;;;1.60;1.00;;;13.90;99.90;;;;;;5088648;28;20324;-69
2023/09/02 04:48:08;;;;;;;5.82;1.40;;;13.90;99.90;;;;;;5092200;28;20043;-69
2023/09/02 04:50:35;;;;;;;0.70;0.40;;;13.90;99.90;;;;;;5092230;28;20090;-70
2023/09/02 04:53:01;;;;;;;1.45;0.75;;;13.90;99.90;;;;;;5093007;28;20490;-70
2023/09/02 04:55:28;;;;;;;1.48;0.98;;;13.90;99.90;;;;;;5092803;28;20043;-69
2023/09/02 04:57:57;;;;;;;1.45;0.60;;;13.90;99.90;;;;;;5088983;28;20094;-70
2023/09/02 05:00:27;;;;;;;1.60;0.70;;;13.90;99.90;;;;;;5092320;28;20483;-69
2023/09/02 05:02:53;;;;;;;2.28;1.13;;;14.00;99.90;;;;;;5092115;28;20042;-70
2023/09/02 05:05:21;;;;;;;1.60;0.63;;;14.00;99.90;;;;;;5091452;28;20100;-70
2023/09/02 05:07:47;;;;;;;1.15;0.50;;;14.00;99.90;;;;;;5074130;28;20035;-70
2023/09/02 05:10:13;;;;;;;0.60;0.50;;;14.00;99.90;;;;;;5092400;28;20452;-69
2023/09/02 05:12:39;;;;;;;2.13;0.73;;;14.10;99.90;;;;;;5091218;28;20047;-69
2023/09/02 05:15:06;;;;;;;1.05;0.57;;;14.10;99.90;;;;;;5092486;28;20054;-70
2023/09/02 05:17:32;;;;;;;1.23;0.90;;;14.10;99.90;;;;;;5090032;28;20070;-70
2023/09/02 05:19:59;;;;;;;1.67;0.68;;;14.10;99.90;;;;;;5092071;28;20069;-70
2023/09/02 05:22:25;;;;;;;1.65;0.73;;;14.10;99.90;;;;;;5091070;28;20093;-70
2023/09/02 05:24:51;;;;;;;1.15;0.60;;;14.10;99.90;;;;;;5090799;28;20075;-70
2023/09/02 05:27:16;;;;;;;1.77;0.95;;;14.20;99.90;;;;;;5090528;28;20032;-70
2023/09/02 05:29:42;;;;;;;2.08;1.02;;;14.20;99.90;;;;;;5091301;28;20109;-70
2023/09/02 05:32:09;;;;;;;1.52;0.77;;;14.20;99.90;;;;;;5090794;28;20051;-70
2023/09/02 05:34:35;;;;;;;1.83;0.85;;;14.20;99.90;;;;;;5089473;28;20043;-70
2023/09/02 05:37:02;;;;;;;3.05;1.48;;;14.20;99.90;;;;;;5090963;28;20403;-70
2023/09/02 05:39:28;;;;;;;2.63;1.35;;;14.30;99.90;;;;;;5090174;28;20048;-69
2023/09/02 05:41:53;;;;;;;2.22;1.10;;;14.30;99.90;;;;;;5091355;28;20032;-70
2023/09/02 05:44:21;;;;;;;2.03;1.05;;;14.30;99.90;;;;;;5090011;28;20043;-70
2023/09/02 05:46:47;;;;;;;0.90;0.60;;;14.30;99.90;;;;;;5109473;28;20035;-70
2023/09/02 05:49:13;;;;;;;1.20;0.73;;;14.40;99.90;;;;;;5089191;28;20463;-70
2023/09/02 05:51:39;;;;;;;2.20;0.90;;;14.40;99.90;;;;;;5090358;28;20200;-70
2023/09/02 05:54:06;;;;;;;1.42;0.80;;;14.40;99.90;;;;;;5090217;28;20190;-70
2023/09/02 05:56:33;;;;;;;3.90;1.42;;;14.50;99.90;;;;;;5088867;28;20390;-70
2023/09/02 05:59:00;;;;;;;0.90;0.70;;;14.50;99.90;;;;;;5108668;28;20046;-70
2023/09/02 06:01:25;;;;;;;5.57;1.27;;;14.40;99.90;;;;;;5090891;28;20039;-70
2023/09/02 06:03:51;;;;;;;1.35;1.15;;;14.40;99.90;;;;;;5086939;28;20046;-70
2023/09/02 06:06:17;;;;;;;1.58;0.98;;;14.40;99.90;;;;;;5090214;28;20045;-69
2023/09/02 06:08:43;;;;;;;1.73;0.90;;;14.40;99.90;;;;;;5089896;28;20031;-70
2023/09/02 06:11:08;;;;;;;1.48;0.80;;;14.40;99.90;;;;;;5072619;28;20035;-70
2023/09/02 06:13:34;;;;;;;2.42;1.25;;;14.40;99.90;;;;;;5089453;28;20051;-71
2023/09/02 06:16:04;;;;;;;1.92;1.10;;;14.40;99.90;;;;;;5089318;28;20514;-71
2023/09/02 06:18:31;;;;;;;1.50;0.85;;;14.50;99.90;;;;;;5088350;28;20046;-71
2023/09/02 06:20:57;;;;;;;1.63;0.80;;;14.50;99.90;;;;;;5069063;28;20231;-71
2023/09/02 06:23:26;;;;;;;1.55;0.98;;;14.50;99.90;;;;;;5071364;28;20429;-69
2023/09/02 06:25:56;;;;;;;1.80;0.68;;;14.60;99.90;;;;;;5086131;28;20042;-69
2023/09/02 06:28:22;;;;;;;1.65;0.80;;;14.60;99.90;;;;;;5089500;28;20116;-69
2023/09/02 06:30:48;;;;;;;2.25;0.80;;;14.60;99.90;;;;;;5086725;28;20071;-69
2023/09/02 06:33:15;;;;;;;3.15;1.50;;;14.60;99.90;;;;;;5090108;28;20048;-69
2023/09/02 06:35:40;;;;;;;1.27;0.80;;;14.70;99.90;;;;;;5087656;28;20375;-70
2023/09/02 06:38:06;;;;;;;1.17;0.73;;;14.70;99.90;;;;;;5091844;28;20039;-70
2023/09/02 06:40:32;;;;;;;2.15;1.08;;;14.70;99.90;;;;;;5108422;28;20539;-70
2023/09/02 06:42:58;;;;;;;2.33;1.00;;;14.80;99.90;;;;;;5091184;28;20040;-70
2023/09/02 06:45:25;;;;;;;1.15;0.70;;;14.90;99.90;;;;;;5087979;28;20036;-70
2023/09/02 06:47:51;;;;;;;1.38;0.75;;;15.00;99.90;;;;;;5092733;28;20398;-69
2023/09/02 06:50:17;;;;;;;1.35;0.90;;;15.10;99.90;;;;;;5088584;28;20043;-70
2023/09/02 06:52:43;;;;;;;4.57;1.33;;;15.20;99.90;;;;;;5074017;28;20031;-70
2023/09/02 06:55:09;;;;;;;2.50;1.55;;;15.30;99.90;;;;;;5092637;28;20050;-71
2023/09/02 06:57:35;;;;;;;1.30;0.77;;;15.40;99.90;;;;;;5092890;28;20449;-71
2023/09/02 07:00:00;;;;;;;2.47;1.23;;;15.50;99.90;;;;;;5074624;28;20098;-71
2023/09/02 07:02:26;;;;;;;1.65;1.05;;;15.60;99.90;;;;;;5094731;28;20398;-71
2023/09/02 07:04:52;;;;;;;3.33;1.35;;;15.60;99.90;;;;;;5093597;28;20032;-72
2023/09/02 07:07:17;;;;;;;1.83;1.10;;;15.60;99.90;;;;;;5093903;28;20038;-71
2023/09/02 07:09:43;;;;;;;7.28;1.45;;;15.70;99.90;;;;;;5095301;28;20467;-71
2023/09/02 07:12:09;;;;;;;3.75;1.30;;;15.80;99.90;;;;;;5093398;28;20101;-71
2023/09/02 07:14:35;;;;;;;2.38;1.42;;;15.90;99.90;;;;;;5093764;28;20093;-70
2023/09/02 07:17:00;;;;;;;2.42;1.48;;;15.90;99.90;;;;;;5093277;28;20388;-71
2023/09/02 07:19:26;;;;;;;3.85;1.50;;;16.00;99.90;;;;;;5075068;28;20046;-71
2023/09/02 07:21:52;;;;;;;2.00;1.10;;;16.00;99.90;;;;;;5090116;28;20043;-71
2023/09/02 07:24:18;;;;;;;2.25;1.48;;;16.10;99.90;;;;;;5093343;28;20040;-71
2023/09/02 07:26:44;;;;;;;1.77;1.45;;;16.20;99.90;;;;;;5089186;28;20083;-70
2023/09/02 07:29:09;;;;;;;2.10;1.35;;;16.20;99.90;;;;;;5090119;28;20136;-71
2023/09/02 07:31:35;;;;;;;2.17;1.00;;;16.30;99.90;;;;;;5111403;28;20059;-71
2023/09/02 07:34:01;;;;;;;2.28;1.17;;;16.30;99.90;;;;;;5093649;28;20429;-71
2023/09/02 07:36:26;;;;;;;1.75;1.13;;;16.40;99.90;;;;;;5091594;28;20039;-71
2023/09/02 07:38:52;;;;;;;2.83;1.95;;;16.50;99.90;;;;;;5075502;28;20035;-71
2023/09/02 07:41:18;;;;;;;3.13;2.17;;;16.50;99.90;;;;;;5112366;28;20155;-71
2023/09/02 07:43:43;;;;;;;3.25;1.65;;;16.60;99.90;;;;;;5093531;28;20038;-71
2023/09/02 07:46:12;;;;;;;3.22;1.98;;;16.70;99.90;;;;;;5091712;28;20118;-71
2023/09/02 07:48:38;;;;;;;2.38;1.42;;;16.70;99.90;;;;;;5092003;28;20040;-71
2023/09/02 07:51:03;;;;;;;2.40;1.35;;;16.70;99.90;;;;;;5090432;28;20035;-71
2023/09/02 07:53:29;;;;;;;4.05;1.42;;;16.80;99.90;;;;;;5092300;28;20043;-71
2023/09/02 07:55:55;;;;;;;1.88;1.17;;;16.80;99.90;;;;;;5093032;28;20149;-72
2023/09/02 07:58:21;;;;;;;1.98;1.15;;;16.90;99.90;;;;;;5092381;28;20078;-71
2023/09/02 08:00:47;;;;;;;2.88;1.83;;;17.00;99.90;;;;;;5093599;28;20047;-71
2023/09/02 08:03:12;;;;;;;2.88;1.58;;;17.10;99.90;;;;;;5092977;28;20488;-71
2023/09/02 08:05:39;;;;;;;1.30;0.98;;;17.00;99.90;;;;;;5091861;28;20039;-71
2023/09/02 08:08:08;;;;;;;3.95;1.50;;;17.00;99.90;;;;;;5092085;28;20092;-71
2023/09/02 08:10:35;;;;;;;2.03;1.05;;;17.10;99.90;;;;;;5091087;28;20043;-71
2023/09/02 08:13:01;;;;;;;1.73;1.10;;;17.20;99.90;;;;;;5091915;28;20481;-70
2023/09/02 08:15:26;;;;;;;2.28;1.25;;;17.30;99.90;;;;;;5056329;28;21354;-70
2023/09/02 08:17:52;;;;;;;2.75;1.42;;;17.40;99.90;;;;;;5091868;28;20480;-70
2023/09/02 08:20:18;;;;;;;3.05;1.52;;;17.50;99.90;;;;;;5087859;28;20043;-71
2023/09/02 08:22:44;;;;;;;3.33;1.67;;;17.60;99.90;;;;;;5093493;28;20044;-71
2023/09/02 08:25:10;;;;;;;2.47;1.10;;;17.80;99.90;;;;;;5089919;28;20051;-71
2023/09/02 08:27:36;;;;;;;1.95;1.27;;;17.90;99.90;;;;;;5091796;28;20159;-71
2023/09/02 08:30:03;;;;;;;2.65;1.58;;;18.10;99.90;;;;;;5090382;28;20469;-71
2023/09/02 08:32:30;;;;;;;3.08;1.92;;;18.20;99.90;;;;;;5089396;28;20052;-71
2023/09/02 08:34:55;;;;;;;5.30;1.63;;;18.30;99.90;;;;;;5086533;28;20126;-68
2023/09/02 08:37:21;;;;;;;2.35;1.08;;;18.40;99.90;;;;;;5091659;28;20126;-71
2023/09/02 08:39:47;;;;;;;5.20;2.03;;;18.50;99.90;;;;;;5090418;28;20502;-71
2023/09/02 08:42:17;;;;;;;3.42;1.42;;;18.60;99.90;;;;;;5092393;28;20036;-71
2023/09/02 08:44:46;;;;;;;2.97;1.35;;;18.70;99.90;;;;;;5088013;28;20039;-71
2023/09/02 08:47:13;;;;;;;2.58;1.65;;;18.70;99.90;;;;;;5092826;28;20510;-72
2023/09/02 08:49:39;;;;;;;2.72;1.70;;;18.70;99.90;;;;;;5107545;28;20399;-71
2023/09/02 08:52:07;;;;;;;2.70;1.73;;;18.60;99.90;;;;;;5093321;28;20123;-71
2023/09/02 08:54:34;;;;;;;3.22;1.73;;;18.60;99.90;;;;;;5089033;28;20035;-71
2023/09/02 08:57:01;;;;;;;3.22;1.75;;;18.70;99.90;;;;;;5090653;28;20039;-71
2023/09/02 08:59:28;;;;;;;2.75;1.80;;;18.70;99.90;;;;;;5093359;28;20087;-71
2023/09/02 09:01:55;;;;;;;3.00;1.52;;;18.80;99.90;;;;;;5092179;28;20039;-71
2023/09/02 09:04:21;;;;;;;2.95;1.98;;;19.00;99.90;;;;;;5088540;28;20046;-71
2023/09/02 09:06:47;;;;;;;7.22;1.52;;;19.10;99.90;;;;;;5091535;28;20027;-71
2023/09/02 09:09:14;;;;;;;4.35;1.40;;;19.30;99.90;;;;;;5091705;28;20039;-71
2023/09/02 09:11:42;;;;;;;1.60;0.80;;;19.50;99.90;;;;;;5091858;28;20043;-72
2023/09/02 09:14:19;;;;;;;5.80;2.05;;;19.70;99.90;;;;;;5105068;28;20149;-71
2023/09/02 09:16:47;;;;;;;3.47;1.60;;;19.80;99.90;;;;;;5108929;28;20038;-71
2023/09/02 09:19:13;;;;;;;2.10;1.08;;;19.70;99.90;;;;;;5090512;28;20441;-71
2023/09/02 09:21:39;;;;;;;2.20;1.38;;;19.60;99.90;;;;;;5088560;28;20035;-71
2023/09/02 09:24:05;;;;;;;2.17;1.08;;;19.60;99.90;;;;;;5091113;28;20042;-71
2023/09/02 09:26:31;;;;;;;3.60;1.92;;;19.60;99.90;;;;;;5090378;28;20027;-71
2023/09/02 09:28:58;;;;;;;2.72;1.27;;;19.60;99.90;;;;;;5091215;28;20039;-69
2023/09/02 09:31:26;;;;;;;2.13;1.27;;;19.50;99.90;;;;;;5050432;28;1203849;-69
2023/09/02 09:33:54;;;;;;;3.00;1.45;;;19.50;99.90;;;;;;5091267;28;20043;-70
2023/09/02 09:36:23;;;;;;;3.95;1.10;;;19.60;99.90;;;;;;5092983;28;20373;-70
2023/09/02 09:38:54;;;;;;;3.85;2.10;;;19.70;99.90;;;;;;5089918;28;20036;-70
2023/09/02 09:41:20;;;;;;;2.25;1.25;;;19.90;99.90;;;;;;5092261;28;20036;-70
2023/09/02 09:44:07;;;;;;;1.73;0.98;;;19.90;99.90;;;;;;5089674;28;20097;-70
2023/09/02 09:46:34;;;;;;;1.60;1.13;;;19.90;99.90;;;;;;5110034;28;20027;-70
2023/09/02 09:49:03;;;;;;;2.13;0.80;;;19.80;99.90;;;;;;5108053;27;20035;-70
2023/09/02 09:51:29;;;;;;;1.20;0.73;;;19.80;99.90;;;;;;5093274;28;20066;-71
2023/09/02 09:53:55;;;;;;;2.35;0.93;;;19.90;99.90;;;;;;5091627;28;20040;-70
2023/09/02 09:56:21;;;;;;;1.15;0.60;;;20.00;99.90;;;;;;5073286;28;20035;-70
2023/09/02 09:58:47;;;;;;;4.18;1.42;;;20.10;99.90;;;;;;5090826;28;20066;-70
2023/09/02 10:01:24;;;;;;;2.33;1.52;;;20.30;99.90;;;;;;5091879;28;20090;-70
2023/09/02 10:03:51;;;;;;;2.15;1.17;;;20.80;99.90;;;;;;5089786;28;20042;-70
2023/09/02 10:06:19;;;;;;;1.60;1.02;;;21.30;99.90;;;;;;5107306;28;20040;-71
2023/09/02 10:08:53;;;;;;;3.47;1.85;;;21.80;99.90;;;;;;5091389;28;20518;-70
2023/09/02 10:11:20;;;;;;;;;;;22.50;99.90;;;;;;5088492;28;20499;-71
2023/09/02 10:13:46;;;;;;;3.22;1.50;;;23.00;99.90;;;;;;5089913;28;19927;-71
2023/09/02 10:16:14;;;;;;;3.22;1.30;;;23.50;99.90;;;;;;5086895;28;20054;-70
2023/09/02 10:18:41;;;;;;;2.50;1.20;;;23.60;99.90;;;;;;5087374;28;20312;-71
2023/09/02 10:21:06;;;;;;;1.95;1.17;;;23.70;99.90;;;;;;5087627;28;20041;-70
2023/09/02 10:23:34;;;;;;;1.17;0.63;;;23.70;99.90;;;;;;5091389;28;20043;-70
2023/09/02 10:26:14;;;;;;;2.17;0.80;;;23.20;99.90;;;;;;5089130;28;20040;-70
2023/09/02 10:28:40;;;;;;;2.25;0.73;;;22.60;99.90;;;;;;5109011;28;20114;-70
2023/09/02 10:31:13;;;;;;;2.83;0.98;;;22.10;99.90;;;;;;5088228;28;20098;-70
2023/09/02 10:33:45;;;;;;;1.70;0.77;;;21.70;99.90;;;;;;5106839;28;20058;-71
2023/09/02 10:36:16;;;;;;;3.67;0.70;;;21.80;99.90;;;;;;5108712;28;20391;-71
2023/09/02 10:38:47;;;;;;;1.67;0.98;;;22.10;99.90;;;;;;5090041;28;20098;-71
2023/09/02 10:41:15;;;;;;;1.95;1.00;;;22.10;99.90;;;;;;5107791;28;20043;-71
2023/09/02 10:43:42;;;;;;;2.50;0.95;;;21.90;99.90;;;;;;5091929;28;20112;-71
2023/09/02 10:46:08;;;;;;;4.75;0.93;;;21.70;99.90;;;;;;5073031;28;20043;-71
2023/09/02 10:48:37;;;;;;;3.40;0.93;;;22.00;99.90;;;;;;5074198;28;20507;-71
2023/09/02 10:51:04;;;;;;;1.90;0.93;;;22.40;99.90;;;;;;5104300;28;20502;-71
2023/09/02 10:53:50;;;;;;;1.30;0.80;;;22.60;99.90;;;;;;5093111;28;20104;-71
2023/09/02 10:56:33;;;;;;;1.92;0.80;;;23.20;99.90;;;;;;5109485;28;20054;-71
2023/09/02 10:59:03;;;;;;;1.05;0.40;;;23.70;99.90;;;;;;5111574;28;20039;-71
2023/09/02 11:01:45;;;;;;;1.15;0.70;;;24.00;99.90;;;;;;5089076;28;20040;-71
2023/09/02 11:04:11;;;;;;;0.98;0.47;;;24.00;99.90;;;;;;5091153;28;20042;-71
2023/09/02 11:06:57;;;;;;;2.67;1.10;;;23.50;99.90;;;;;;5089445;28;20114;-71
2023/09/02 11:09:56;;;;;;;2.25;1.20;;;23.00;99.90;;;;;;5092136;28;20047;-70
2023/09/02 11:12:22;;;;;;;2.20;0.70;;;22.40;99.90;;;;;;5048159;28;20048;-70
2023/09/02 11:15:06;;;;;;;1.90;0.73;;;22.10;99.90;;;;;;5090775;28;20552;-70
2023/09/02 11:17:33;;;;;;;1.83;0.40;;;21.70;99.90;;;;;;5091865;28;20467;-70
2023/09/02 11:20:01;;;;;;;1.10;0.60;;;21.40;99.90;;;;;;5090086;28;20047;-70
2023/09/02 11:22:47;;;;;;;1.33;0.60;;;21.20;99.90;;;;;;5090638;28;20054;-70
2023/09/02 11:25:31;;;;;;;0.82;0.52;;;20.90;99.90;;;;;;5090170;28;20043;-70
2023/09/02 11:27:58;;;;;;;;;;;21.20;99.90;;;;;;5094201;28;20024;-71
2023/09/02 11:30:25;;;;;;;1.33;0.95;;;22.00;99.90;;;;;;5091166;28;19923;-71
2023/09/02 11:32:51;;;;;;;1.55;0.52;;;22.80;99.90;;;;;;5089714;28;20132;-71
2023/09/02 11:35:32;;;;;;;1.52;0.50;;;23.50;99.90;;;;;;5089939;28;20051;-71
2023/09/02 11:37:59;;;;;;;1.95;0.82;;;24.10;99.90;;;;;;5106131;28;20492;-71
2023/09/02 11:40:25;;;;;;;1.23;0.50;;;24.00;99.90;;;;;;5091762;28;20047;-71
2023/09/02 11:42:53;;;;;;;1.45;0.65;;;23.70;99.90;;;;;;5113736;28;20084;-71
2023/09/02 11:45:19;;;;;;;0.95;0.32;;;23.20;99.90;;;;;;5092657;28;20124;-70
2023/09/02 11:47:46;;;;;;;0.30;0.20;;;22.70;99.90;;;;;;5095843;28;20035;-70
2023/09/02 11:50:17;;;;;;;3.47;0.35;;;22.50;99.90;;;;;;5113001;28;20174;-70
2023/09/02 11:52:43;;;;;;;0.88;0.40;;;23.00;99.90;;;;;;5093640;28;20136;-71
2023/09/02 11:55:11;;;;;;;2.05;0.52;;;23.70;99.90;;;;;;5075721;28;20047;-71
2023/09/02 11:57:37;;;;;;;0.30;0.22;;;24.50;99.90;;;;;;5092166;28;20567;-71
2023/09/02 12:00:08;;;;;;;0.80;0.50;;;25.00;99.90;;;;;;5113552;28;20083;-72
2023/09/02 12:02:37;;;;;;;0.95;0.38;;;25.30;99.50;;;;;;5093109;28;20503;-71
2023/09/02 12:05:03;;;;;;;1.48;0.55;;;25.40;99.70;;;;;;5092761;28;20031;-72
2023/09/02 12:07:31;;;;;;;3.67;0.60;;;25.00;99.80;;;;;;5092638;28;20299;-71
2023/09/02 12:09:57;;;;;;;0.60;0.40;;;24.20;99.90;;;;;;5095042;28;20111;-72
2023/09/02 12:12:23;;;;;;;0.40;0.20;;;23.70;99.90;;;;;;5091354;28;20031;-71
2023/09/02 12:14:49;;;;;;;1.58;0.70;;;23.20;99.90;;;;;;5093736;28;20039;-71
2023/09/02 12:17:16;;;;;;;0.45;0.30;;;23.10;99.90;;;;;;5092251;28;20039;-71
2023/09/02 12:19:41;;;;;;;0.52;0.28;;;23.80;99.90;;;;;;5095356;28;20122;-71
2023/09/02 12:22:07;;;;;;;1.38;0.40;;;24.30;99.90;;;;;;5094995;28;20118;-71
2023/09/02 12:24:34;;;;;;;1.02;0.28;;;24.70;99.90;;;;;;5096221;28;20069;-72
2023/09/02 12:27:00;;;;;;;1.95;0.75;;;25.10;99.90;;;;;;5077122;28;20039;-72
2023/09/02 12:29:25;;;;;;;1.30;0.45;;;25.60;98.50;;;;;;5094976;28;20044;-71
2023/09/02 12:31:55;;;;;;;2.35;0.60;;;26.10;99.80;;;;;;5071949;28;20051;-72
2023/09/02 12:34:24;;;;;;;1.33;0.32;;;26.30;99.90;;;;;;5094720;28;20511;-70
2023/09/02 12:36:50;;;;;;;1.20;0.40;;;26.50;97.10;;;;;;5092805;28;20043;-68
2023/09/02 12:39:28;;;;;;;0.98;0.60;;;26.70;92.10;;;;;;5076478;28;20476;-69
2023/09/02 12:41:55;;;;;;;0.82;0.28;;;26.80;87.10;;;;;;5089631;28;20395;-69
2023/09/02 12:44:22;;;;;;;1.48;0.50;;;27.20;99.40;;;;;;5093386;28;20047;-69
2023/09/02 12:46:48;;;;;;;0.82;0.30;;;27.60;94.10;;;;;;5090928;28;20047;-69
2023/09/02 12:49:17;;;;;;;0.30;0.20;;;27.60;95.00;;;;;;5110093;28;20110;-69